Página principal
METAR-TAF:

METAR-TAF

Aeroportos :

Dakar, Senegal

Aeroporto Internacional Yoff-Léopold Sédar Senghor

latitude: 14-44N, longitude: 017-30W, altura: 27 m

Observação actual do tempo

O boletim foi feito há 24 minutos, às 03:30 UTC
Vento 4 kt de sudoeste
Temperatura 28°C
Humidade 89%
Pressão 1014 hPa
Visibilidade: 8000 m

METAR: GOOY 170330Z 23004KT 8000 NSC 28/26 Q1014 NOSIG

Hora: 03:54 (03:54 UTC)

Previsão

O boletim foi feito há 4 horas e 24 minutos, às 23:30 UTC
Previsão válida de 17 às 00 UTC a 18 às 06 UTC
Vento 6 kt de sudoeste
Visibilidade: 6000 m

TAF: GOOY 162330Z 1700/1806 22006KT 6000 NSC

Observações e previsões do tempo de mais de 4000 aeroportos (mensagens METAR e TAF).

As estações disponíveis são os pontos amarelos e vermelhos sobre o mapa.

Mova o rato sobre o mapa para ver o nome da estação.

Depois clique no ponto para visualizar as observações e previsões meteorológicas.

Para alterar o mapa : clique nos botões verdes com uma cruz preta para aumentar o zoom; no botão verde com uma pitada de zoom; ou nas setas verdes para mapas adjacentes.


METAR-TAF: